sensor_id;sensor_type;location;lat;lon;timestamp;temperature;humidity
47921;DHT22;33686;48.770;9.186;2023-07-29T05:17:41;17.90;99.90
47921;DHT22;33686;48.770;9.186;2023-07-29T05:20:06;18.00;99.90
47921;DHT22;33686;48.770;9.186;2023-07-29T05:22:32;18.00;99.90
47921;DHT22;33686;48.770;9.186;2023-07-29T05:24:58;18.20;99.90
47921;DHT22;33686;48.770;9.186;2023-07-29T05:27:23;18.30;99.90
47921;DHT22;33686;48.770;9.186;2023-07-29T05:29:49;18.40;99.90
47921;DHT22;33686;48.770;9.186;2023-07-29T05:32:14;18.50;99.90
47921;DHT22;33686;48.770;9.186;2023-07-29T05:34:41;18.50;99.90
47921;DHT22;33686;48.770;9.186;2023-07-29T05:37:07;18.60;99.90
47921;DHT22;33686;48.770;9.186;2023-07-29T05:39:33;18.60;99.90
47921;DHT22;33686;48.770;9.186;2023-07-29T05:41:59;18.60;99.90
47921;DHT22;33686;48.770;9.186;2023-07-29T05:44:28;18.70;99.90
47921;DHT22;33686;48.770;9.186;2023-07-29T05:46:53;18.80;99.90
47921;DHT22;33686;48.770;9.186;2023-07-29T05:49:19;18.80;99.90
47921;DHT22;33686;48.770;9.186;2023-07-29T05:51:45;18.90;99.90
47921;DHT22;33686;48.770;9.186;2023-07-29T05:54:11;19.10;99.90
47921;DHT22;33686;48.770;9.186;2023-07-29T05:56:36;19.20;99.90
47921;DHT22;33686;48.770;9.186;2023-07-29T05:59:02;19.30;99.90
47921;DHT22;33686;48.770;9.186;2023-07-29T06:01:28;19.50;99.90
47921;DHT22;33686;48.770;9.186;2023-07-29T06:03:53;19.60;99.90
47921;DHT22;33686;48.770;9.186;2023-07-29T06:06:19;19.60;99.90
47921;DHT22;33686;48.770;9.186;2023-07-29T06:08:45;19.90;99.90
47921;DHT22;33686;48.770;9.186;2023-07-29T06:11:10;20.40;99.90
47921;DHT22;33686;48.770;9.186;2023-07-29T06:13:36;21.00;99.90
47921;DHT22;33686;48.770;9.186;2023-07-29T06:16:01;20.70;99.90
47921;DHT22;33686;48.770;9.186;2023-07-29T06:18:27;20.80;99.90
47921;DHT22;33686;48.770;9.186;2023-07-29T06:20:54;20.80;99.90
47921;DHT22;33686;48.770;9.186;2023-07-29T06:23:19;20.80;99.90
47921;DHT22;33686;48.770;9.186;2023-07-29T06:25:45;20.80;99.90
47921;DHT22;33686;48.770;9.186;2023-07-29T06:28:10;20.90;99.90
47921;DHT22;33686;48.770;9.186;2023-07-29T06:30:36;21.00;99.90
47921;DHT22;33686;48.770;9.186;2023-07-29T06:33:01;21.10;99.90
47921;DHT22;33686;48.770;9.186;2023-07-29T06:35:28;21.10;99.90
47921;DHT22;33686;48.770;9.186;2023-07-29T06:37:54;21.00;99.90
47921;DHT22;33686;48.770;9.186;2023-07-29T06:40:19;20.80;99.90
47921;DHT22;33686;48.770;9.186;2023-07-29T06:42:45;20.70;99.90
47921;DHT22;33686;48.770;9.186;2023-07-29T06:45:11;20.60;99.90
47921;DHT22;33686;48.770;9.186;2023-07-29T06:47:37;20.40;99.90
47921;DHT22;33686;48.770;9.186;2023-07-29T06:50:02;20.30;99.90
47921;DHT22;33686;48.770;9.186;2023-07-29T06:52:28;20.30;99.90
47921;DHT22;33686;48.770;9.186;2023-07-29T06:54:53;20.30;99.90
47921;DHT22;33686;48.770;9.186;2023-07-29T06:57:19;20.20;99.90
47921;DHT22;33686;48.770;9.186;2023-07-29T06:59:45;20.20;99.90
47921;DHT22;33686;48.770;9.186;2023-07-29T07:02:10;20.10;99.90
47921;DHT22;33686;48.770;9.186;2023-07-29T07:04:36;20.00;99.90
47921;DHT22;33686;48.770;9.186;2023-07-29T07:07:01;19.90;99.90
47921;DHT22;33686;48.770;9.186;2023-07-29T07:09:27;19.70;99.90
47921;DHT22;33686;48.770;9.186;2023-07-29T07:11:52;19.70;99.90
47921;DHT22;33686;48.770;9.186;2023-07-29T07:14:18;19.60;99.90
47921;DHT22;33686;48.770;9.186;2023-07-29T07:16:43;19.50;99.90
47921;DHT22;33686;48.770;9.186;2023-07-29T07:19:09;19.40;99.90
47921;DHT22;33686;48.770;9.186;2023-07-29T07:21:35;19.40;99.90
47921;DHT22;33686;48.770;9.186;2023-07-29T07:24:00;19.30;99.90
47921;DHT22;33686;48.770;9.186;2023-07-29T07:26:26;19.30;99.90
47921;DHT22;33686;48.770;9.186;2023-07-29T07:28:52;19.30;99.90
47921;DHT22;33686;48.770;9.186;2023-07-29T07:31:17;19.40;99.90
47921;DHT22;33686;48.770;9.186;2023-07-29T07:33:43;19.40;99.90
47921;DHT22;33686;48.770;9.186;2023-07-29T07:36:08;19.40;99.90
47921;DHT22;33686;48.770;9.186;2023-07-29T07:38:34;19.50;99.90
47921;DHT22;33686;48.770;9.186;2023-07-29T07:41:00;19.50;99.90
47921;DHT22;33686;48.770;9.186;2023-07-29T07:43:25;19.60;99.90
47921;DHT22;33686;48.770;9.186;2023-07-29T07:45:51;19.80;99.90
47921;DHT22;33686;48.770;9.186;2023-07-29T07:48:22;19.80;99.90
47921;DHT22;33686;48.770;9.186;2023-07-29T07:50:48;19.90;99.90
47921;DHT22;33686;48.770;9.186;2023-07-29T07:53:13;19.90;99.90
47921;DHT22;33686;48.770;9.186;2023-07-29T07:55:39;19.90;99.90
47921;DHT22;33686;48.770;9.186;2023-07-29T07:58:04;19.90;99.90
47921;DHT22;33686;48.770;9.186;2023-07-29T08:00:30;20.00;99.90
47921;DHT22;33686;48.770;9.186;2023-07-29T08:02:55;20.10;99.90
47921;DHT22;33686;48.770;9.186;2023-07-29T08:05:21;20.20;99.90
47921;DHT22;33686;48.770;9.186;2023-07-29T08:07:46;20.30;99.90
47921;DHT22;33686;48.770;9.186;2023-07-29T08:10:12;20.60;99.90
47921;DHT22;33686;48.770;9.186;2023-07-29T08:12:37;20.60;99.90
47921;DHT22;33686;48.770;9.186;2023-07-29T08:15:03;20.60;99.90
47921;DHT22;33686;48.770;9.186;2023-07-29T08:17:29;20.70;99.90
47921;DHT22;33686;48.770;9.186;2023-07-29T08:19:54;21.10;99.90
47921;DHT22;33686;48.770;9.186;2023-07-29T08:22:20;21.50;99.90
47921;DHT22;33686;48.770;9.186;2023-07-29T08:24:45;21.80;99.90
47921;DHT22;33686;48.770;9.186;2023-07-29T08:27:11;22.00;99.90
47921;DHT22;33686;48.770;9.186;2023-07-29T08:29:36;21.90;99.90
47921;DHT22;33686;48.770;9.186;2023-07-29T08:32:03;21.80;99.90
47921;DHT22;33686;48.770;9.186;2023-07-29T08:34:29;21.90;99.90
47921;DHT22;33686;48.770;9.186;2023-07-29T08:36:54;21.90;99.90
47921;DHT22;33686;48.770;9.186;2023-07-29T08:39:20;22.10;99.90
47921;DHT22;33686;48.770;9.186;2023-07-29T08:41:54;22.00;99.90
47921;DHT22;33686;48.770;9.186;2023-07-29T08:44:26;22.30;99.90
47921;DHT22;33686;48.770;9.186;2023-07-29T08:46:55;22.40;99.90
47921;DHT22;33686;48.770;9.186;2023-07-29T08:49:22;22.70;99.90
47921;DHT22;33686;48.770;9.186;2023-07-29T08:51:48;23.00;99.90
47921;DHT22;33686;48.770;9.186;2023-07-29T08:54:15;23.50;99.90
47921;DHT22;33686;48.770;9.186;2023-07-29T08:56:43;24.70;99.90
47921;DHT22;33686;48.770;9.186;2023-07-29T08:59:09;25.00;99.90
47921;DHT22;33686;48.770;9.186;2023-07-29T09:01:37;25.90;99.90
47921;DHT22;33686;48.770;9.186;2023-07-29T09:04:03;26.10;99.90
47921;DHT22;33686;48.770;9.186;2023-07-29T09:06:29;26.80;99.90
47921;DHT22;33686;48.770;9.186;2023-07-29T09:08:56;27.10;99.90
47921;DHT22;33686;48.770;9.186;2023-07-29T09:11:21;27.00;99.90
47921;DHT22;33686;48.770;9.186;2023-07-29T09:13:47;26.80;99.90
47921;DHT22;33686;48.770;9.186;2023-07-29T09:16:13;26.20;99.90
47921;DHT22;33686;48.770;9.186;2023-07-29T09:18:39;26.10;99.90
47921;DHT22;33686;48.770;9.186;2023-07-29T09:21:04;25.60;99.90
47921;DHT22;33686;48.770;9.186;2023-07-29T09:23:40;25.30;99.90
47921;DHT22;33686;48.770;9.186;2023-07-29T09:26:06;25.50;99.90
47921;DHT22;33686;48.770;9.186;2023-07-29T09:28:33;25.50;99.90
47921;DHT22;33686;48.770;9.186;2023-07-29T09:30:59;25.70;99.90
47921;DHT22;33686;48.770;9.186;2023-07-29T09:33:28;25.90;99.90
47921;DHT22;33686;48.770;9.186;2023-07-29T09:35:54;26.00;99.90
47921;DHT22;33686;48.770;9.186;2023-07-29T09:38:25;26.10;99.90
47921;DHT22;33686;48.770;9.186;2023-07-29T09:40:51;26.20;99.90
47921;DHT22;33686;48.770;9.186;2023-07-29T09:43:19;25.90;99.90
47921;DHT22;33686;48.770;9.186;2023-07-29T09:45:49;25.80;99.90
47921;DHT22;33686;48.770;9.186;2023-07-29T09:48:17;25.60;99.90
47921;DHT22;33686;48.770;9.186;2023-07-29T09:50:44;25.80;99.90
47921;DHT22;33686;48.770;9.186;2023-07-29T09:53:12;26.10;99.90
47921;DHT22;33686;48.770;9.186;2023-07-29T09:55:38;26.10;99.90
47921;DHT22;33686;48.770;9.186;2023-07-29T09:58:03;26.20;99.90
47921;DHT22;33686;48.770;9.186;2023-07-29T10:00:33;26.20;99.90
47921;DHT22;33686;48.770;9.186;2023-07-29T10:02:59;26.30;99.90
47921;DHT22;33686;48.770;9.186;2023-07-29T10:05:28;27.20;99.90
47921;DHT22;33686;48.770;9.186;2023-07-29T10:07:54;27.80;99.90
47921;DHT22;33686;48.770;9.186;2023-07-29T10:10:20;28.40;99.90
47921;DHT22;33686;48.770;9.186;2023-07-29T10:12:46;28.70;99.90
47921;DHT22;33686;48.770;9.186;2023-07-29T10:15:12;28.60;99.90
47921;DHT22;33686;48.770;9.186;2023-07-29T10:17:38;27.90;99.90
47921;DHT22;33686;48.770;9.186;2023-07-29T10:20:05;27.70;99.90
47921;DHT22;33686;48.770;9.186;2023-07-29T10:22:35;27.20;99.90
47921;DHT22;33686;48.770;9.186;2023-07-29T10:25:03;26.70;99.90
47921;DHT22;33686;48.770;9.186;2023-07-29T10:27:30;26.90;99.90
47921;DHT22;33686;48.770;9.186;2023-07-29T10:29:56;27.00;99.90
47921;DHT22;33686;48.770;9.186;2023-07-29T10:32:25;27.30;99.90
47921;DHT22;33686;48.770;9.186;2023-07-29T10:34:50;27.40;99.90
47921;DHT22;33686;48.770;9.186;2023-07-29T10:37:16;27.10;99.90
47921;DHT22;33686;48.770;9.186;2023-07-29T10:39:51;26.90;99.90
47921;DHT22;33686;48.770;9.186;2023-07-29T10:42:17;26.70;99.90
47921;DHT22;33686;48.770;9.186;2023-07-29T10:44:46;26.20;99.90
47921;DHT22;33686;48.770;9.186;2023-07-29T10:49:41;25.20;99.90
47921;DHT22;33686;48.770;9.186;2023-07-29T10:52:06;24.80;99.90
47921;DHT22;33686;48.770;9.186;2023-07-29T10:54:47;24.70;99.90
47921;DHT22;33686;48.770;9.186;2023-07-29T10:57:14;24.70;99.90
47921;DHT22;33686;48.770;9.186;2023-07-29T10:59:40;24.80;99.90
47921;DHT22;33686;48.770;9.186;2023-07-29T11:02:15;24.90;99.90
47921;DHT22;33686;48.770;9.186;2023-07-29T11:04:49;24.80;99.90
47921;DHT22;33686;48.770;9.186;2023-07-29T11:09:42;25.00;99.90
47921;DHT22;33686;48.770;9.186;2023-07-29T11:14:52;25.40;99.90
47921;DHT22;33686;48.770;9.186;2023-07-29T11:17:17;25.00;99.90
47921;DHT22;33686;48.770;9.186;2023-07-29T11:19:43;25.00;99.90
47921;DHT22;33686;48.770;9.186;2023-07-29T11:22:10;25.20;99.90
47921;DHT22;33686;48.770;9.186;2023-07-29T11:24:35;25.00;99.90
47921;DHT22;33686;48.770;9.186;2023-07-29T11:27:01;25.30;99.90
47921;DHT22;33686;48.770;9.186;2023-07-29T11:29:26;25.30;99.90
47921;DHT22;33686;48.770;9.186;2023-07-29T11:31:52;25.10;99.90
47921;DHT22;33686;48.770;9.186;2023-07-29T11:34:17;25.10;99.90
47921;DHT22;33686;48.770;9.186;2023-07-29T11:36:46;24.80;99.90
47921;DHT22;33686;48.770;9.186;2023-07-29T11:39:11;25.30;99.90
47921;DHT22;33686;48.770;9.186;2023-07-29T11:41:37;25.60;99.90
47921;DHT22;33686;48.770;9.186;2023-07-29T11:44:02;25.50;99.90
47921;DHT22;33686;48.770;9.186;2023-07-29T11:46:28;25.50;99.90
47921;DHT22;33686;48.770;9.186;2023-07-29T11:48:54;25.20;99.90
47921;DHT22;33686;48.770;9.186;2023-07-29T11:51:20;25.10;99.90
47921;DHT22;33686;48.770;9.186;2023-07-29T11:53:46;25.40;99.90
47921;DHT22;33686;48.770;9.186;2023-07-29T11:56:12;25.70;99.90
47921;DHT22;33686;48.770;9.186;2023-07-29T11:58:38;25.50;99.90
47921;DHT22;33686;48.770;9.186;2023-07-29T12:01:03;25.60;99.90
47921;DHT22;33686;48.770;9.186;2023-07-29T12:03:30;25.50;99.90
47921;DHT22;33686;48.770;9.186;2023-07-29T12:05:56;25.50;99.90
47921;DHT22;33686;48.770;9.186;2023-07-29T12:08:22;25.70;99.90
47921;DHT22;33686;48.770;9.186;2023-07-29T12:10:48;25.90;99.90
47921;DHT22;33686;48.770;9.186;2023-07-29T12:13:14;25.90;99.90
47921;DHT22;33686;48.770;9.186;2023-07-29T12:15:39;25.80;99.90
47921;DHT22;33686;48.770;9.186;2023-07-29T12:18:06;25.90;99.90
47921;DHT22;33686;48.770;9.186;2023-07-29T12:20:31;25.90;99.90
47921;DHT22;33686;48.770;9.186;2023-07-29T12:22:57;25.90;99.90
47921;DHT22;33686;48.770;9.186;2023-07-29T12:25:23;25.90;99.90
47921;DHT22;33686;48.770;9.186;2023-07-29T12:27:49;25.50;99.90
47921;DHT22;33686;48.770;9.186;2023-07-29T12:30:14;25.90;99.90
47921;DHT22;33686;48.770;9.186;2023-07-29T12:32:46;26.40;99.90
47921;DHT22;33686;48.770;9.186;2023-07-29T12:35:12;26.90;99.90
47921;DHT22;33686;48.770;9.186;2023-07-29T12:37:38;27.20;99.90
47921;DHT22;33686;48.770;9.186;2023-07-29T12:40:07;27.40;99.90
47921;DHT22;33686;48.770;9.186;2023-07-29T12:42:33;26.70;99.90
47921;DHT22;33686;48.770;9.186;2023-07-29T12:44:58;26.80;99.90
47921;DHT22;33686;48.770;9.186;2023-07-29T12:47:24;26.80;99.90
47921;DHT22;33686;48.770;9.186;2023-07-29T12:49:49;26.50;99.90
47921;DHT22;33686;48.770;9.186;2023-07-29T12:52:15;26.60;99.90
47921;DHT22;33686;48.770;9.186;2023-07-29T12:54:40;26.60;99.90
47921;DHT22;33686;48.770;9.186;2023-07-29T12:57:07;26.30;99.90
47921;DHT22;33686;48.770;9.186;2023-07-29T12:59:33;26.40;99.90
47921;DHT22;33686;48.770;9.186;2023-07-29T13:01:58;26.40;99.90
47921;DHT22;33686;48.770;9.186;2023-07-29T13:04:24;26.50;99.90
47921;DHT22;33686;48.770;9.186;2023-07-29T13:06:49;26.40;99.90
47921;DHT22;33686;48.770;9.186;2023-07-29T13:09:15;26.30;99.90
47921;DHT22;33686;48.770;9.186;2023-07-29T13:11:40;26.40;99.90
47921;DHT22;33686;48.770;9.186;2023-07-29T13:14:06;26.70;99.90
47921;DHT22;33686;48.770;9.186;2023-07-29T13:16:31;26.80;99.90
47921;DHT22;33686;48.770;9.186;2023-07-29T13:18:57;26.90;99.90
47921;DHT22;33686;48.770;9.186;2023-07-29T13:21:23;26.40;99.90
47921;DHT22;33686;48.770;9.186;2023-07-29T13:23:48;26.40;99.90
47921;DHT22;33686;48.770;9.186;2023-07-29T13:26:14;26.30;99.90
47921;DHT22;33686;48.770;9.186;2023-07-29T13:28:39;26.50;99.90
47921;DHT22;33686;48.770;9.186;2023-07-29T13:31:05;26.70;99.90
47921;DHT22;33686;48.770;9.186;2023-07-29T13:33:30;26.80;99.90
47921;DHT22;33686;48.770;9.186;2023-07-29T13:35:59;26.90;99.90
47921;DHT22;33686;48.770;9.186;2023-07-29T13:38:25;26.80;99.90
47921;DHT22;33686;48.770;9.186;2023-07-29T13:40:50;26.50;99.90
47921;DHT22;33686;48.770;9.186;2023-07-29T13:43:16;26.50;99.90
47921;DHT22;33686;48.770;9.186;2023-07-29T13:45:42;26.60;99.90
47921;DHT22;33686;48.770;9.186;2023-07-29T13:48:08;26.70;99.90
47921;DHT22;33686;48.770;9.186;2023-07-29T13:50:33;26.60;99.90
47921;DHT22;33686;48.770;9.186;2023-07-29T13:52:59;26.60;99.90
47921;DHT22;33686;48.770;9.186;2023-07-29T13:55:24;26.80;99.90
47921;DHT22;33686;48.770;9.186;2023-07-29T13:57:50;26.80;99.90
47921;DHT22;33686;48.770;9.186;2023-07-29T14:00:15;26.60;99.90
47921;DHT22;33686;48.770;9.186;2023-07-29T14:02:41;26.60;99.90
47921;DHT22;33686;48.770;9.186;2023-07-29T14:05:07;26.90;99.90
47921;DHT22;33686;48.770;9.186;2023-07-29T14:07:32;27.10;99.90
47921;DHT22;33686;48.770;9.186;2023-07-29T14:09:58;27.00;99.90
47921;DHT22;33686;48.770;9.186;2023-07-29T14:12:23;27.00;99.90
47921;DHT22;33686;48.770;9.186;2023-07-29T14:14:49;27.00;99.90
47921;DHT22;33686;48.770;9.186;2023-07-29T14:17:14;27.00;99.90
47921;DHT22;33686;48.770;9.186;2023-07-29T14:19:40;27.00;99.90
47921;DHT22;33686;48.770;9.186;2023-07-29T14:22:05;26.80;99.90
47921;DHT22;33686;48.770;9.186;2023-07-29T14:24:31;26.80;99.90
47921;DHT22;33686;48.770;9.186;2023-07-29T14:26:57;27.00;99.90
47921;DHT22;33686;48.770;9.186;2023-07-29T14:29:22;26.90;99.90
47921;DHT22;33686;48.770;9.186;2023-07-29T14:31:48;26.70;99.90
47921;DHT22;33686;48.770;9.186;2023-07-29T14:34:13;26.70;99.90
47921;DHT22;33686;48.770;9.186;2023-07-29T14:36:39;26.50;99.90
47921;DHT22;33686;48.770;9.186;2023-07-29T14:39:04;26.20;99.90
47921;DHT22;33686;48.770;9.186;2023-07-29T14:41:30;26.10;99.90
47921;DHT22;33686;48.770;9.186;2023-07-29T14:43:56;26.00;99.90
47921;DHT22;33686;48.770;9.186;2023-07-29T14:46:21;25.80;99.90
47921;DHT22;33686;48.770;9.186;2023-07-29T14:48:47;25.90;99.90
47921;DHT22;33686;48.770;9.186;2023-07-29T14:51:12;26.10;99.90
47921;DHT22;33686;48.770;9.186;2023-07-29T14:53:38;26.10;99.90
47921;DHT22;33686;48.770;9.186;2023-07-29T14:56:04;26.10;99.90
47921;DHT22;33686;48.770;9.186;2023-07-29T14:58:30;26.10;99.90
47921;DHT22;33686;48.770;9.186;2023-07-29T15:00:55;26.00;99.90
47921;DHT22;33686;48.770;9.186;2023-07-29T15:03:21;26.00;99.90
47921;DHT22;33686;48.770;9.186;2023-07-29T15:05:46;26.10;99.90
47921;DHT22;33686;48.770;9.186;2023-07-29T15:08:12;26.10;99.90
47921;DHT22;33686;48.770;9.186;2023-07-29T15:10:37;26.30;99.90
47921;DHT22;33686;48.770;9.186;2023-07-29T15:15:44;26.40;99.90
47921;DHT22;33686;48.770;9.186;2023-07-29T15:18:10;26.40;99.90
47921;DHT22;33686;48.770;9.186;2023-07-29T15:20:35;26.20;99.90
47921;DHT22;33686;48.770;9.186;2023-07-29T15:23:01;26.10;99.90
47921;DHT22;33686;48.770;9.186;2023-07-29T15:25:27;26.10;99.90
47921;DHT22;33686;48.770;9.186;2023-07-29T15:30:29;26.30;99.90
47921;DHT22;33686;48.770;9.186;2023-07-29T15:32:55;26.30;99.90
47921;DHT22;33686;48.770;9.186;2023-07-29T15:35:23;26.30;99.90
47921;DHT22;33686;48.770;9.186;2023-07-29T15:37:49;26.20;99.90
47921;DHT22;33686;48.770;9.186;2023-07-29T15:40:15;26.30;99.90
47921;DHT22;33686;48.770;9.186;2023-07-29T15:42:41;26.60;99.90
47921;DHT22;33686;48.770;9.186;2023-07-29T15:45:07;26.90;99.90
47921;DHT22;33686;48.770;9.186;2023-07-29T15:47:33;26.90;99.90
47921;DHT22;33686;48.770;9.186;2023-07-29T15:49:58;26.80;99.90
47921;DHT22;33686;48.770;9.186;2023-07-29T15:52:24;26.60;99.90
47921;DHT22;33686;48.770;9.186;2023-07-29T15:54:51;26.60;99.90
47921;DHT22;33686;48.770;9.186;2023-07-29T15:57:17;26.80;99.90
47921;DHT22;33686;48.770;9.186;2023-07-29T15:59:43;26.90;99.90
47921;DHT22;33686;48.770;9.186;2023-07-29T16:15:21;26.50;99.90
47921;DHT22;33686;48.770;9.186;2023-07-29T16:17:46;26.70;99.90
47921;DHT22;33686;48.770;9.186;2023-07-29T16:20:15;26.90;99.90
47921;DHT22;33686;48.770;9.186;2023-07-29T16:22:40;27.00;99.90
47921;DHT22;33686;48.770;9.186;2023-07-29T16:25:06;27.10;99.90
47921;DHT22;33686;48.770;9.186;2023-07-29T16:27:31;27.20;99.90
47921;DHT22;33686;48.770;9.186;2023-07-29T16:29:58;27.10;99.90
47921;DHT22;33686;48.770;9.186;2023-07-29T16:32:25;27.20;99.90
47921;DHT22;33686;48.770;9.186;2023-07-29T16:34:50;27.00;99.90
47921;DHT22;33686;48.770;9.186;2023-07-29T16:37:16;27.00;99.90
47921;DHT22;33686;48.770;9.186;2023-07-29T16:39:42;27.00;99.90
47921;DHT22;33686;48.770;9.186;2023-07-29T16:42:07;27.00;99.90
47921;DHT22;33686;48.770;9.186;2023-07-29T16:44:33;26.90;99.90
47921;DHT22;33686;48.770;9.186;2023-07-29T16:46:58;26.60;99.90
47921;DHT22;33686;48.770;9.186;2023-07-29T16:49:24;26.70;99.90
47921;DHT22;33686;48.770;9.186;2023-07-29T16:51:49;26.70;99.90
47921;DHT22;33686;48.770;9.186;2023-07-29T16:54:15;26.70;99.90
47921;DHT22;33686;48.770;9.186;2023-07-29T16:56:44;26.60;99.90
47921;DHT22;33686;48.770;9.186;2023-07-29T16:59:09;26.60;99.90
47921;DHT22;33686;48.770;9.186;2023-07-29T17:01:35;26.60;99.90
47921;DHT22;33686;48.770;9.186;2023-07-29T17:04:00;26.60;99.90
47921;DHT22;33686;48.770;9.186;2023-07-29T17:06:26;26.40;99.90
47921;DHT22;33686;48.770;9.186;2023-07-29T17:08:52;26.30;99.90
47921;DHT22;33686;48.770;9.186;2023-07-29T17:11:17;26.20;99.90
47921;DHT22;33686;48.770;9.186;2023-07-29T17:13:43;26.00;99.90
47921;DHT22;33686;48.770;9.186;2023-07-29T17:16:09;26.00;99.90
47921;DHT22;33686;48.770;9.186;2023-07-29T17:18:34;25.80;99.90
47921;DHT22;33686;48.770;9.186;2023-07-29T17:21:02;25.70;99.90
47921;DHT22;33686;48.770;9.186;2023-07-29T17:23:27;25.60;99.90
47921;DHT22;33686;48.770;9.186;2023-07-29T17:25:53;25.60;99.90
47921;DHT22;33686;48.770;9.186;2023-07-29T17:28:18;25.50;99.90
47921;DHT22;33686;48.770;9.186;2023-07-29T17:30:44;25.30;99.90
47921;DHT22;33686;48.770;9.186;2023-07-29T17:33:09;25.00;99.90
47921;DHT22;33686;48.770;9.186;2023-07-29T17:35:35;24.60;99.90
47921;DHT22;33686;48.770;9.186;2023-07-29T17:38:00;24.10;99.90
47921;DHT22;33686;48.770;9.186;2023-07-29T17:40:27;23.60;99.90
47921;DHT22;33686;48.770;9.186;2023-07-29T17:42:52;23.30;99.90
47921;DHT22;33686;48.770;9.186;2023-07-29T17:45:18;23.00;99.90
47921;DHT22;33686;48.770;9.186;2023-07-29T17:47:43;22.80;99.90
47921;DHT22;33686;48.770;9.186;2023-07-29T17:50:09;22.80;99.90
47921;DHT22;33686;48.770;9.186;2023-07-29T17:52:34;22.70;99.90
47921;DHT22;33686;48.770;9.186;2023-07-29T17:55:00;22.60;99.90
47921;DHT22;33686;48.770;9.186;2023-07-29T17:57:25;22.60;99.90
47921;DHT22;33686;48.770;9.186;2023-07-29T17:59:52;22.50;99.90
47921;DHT22;33686;48.770;9.186;2023-07-29T18:02:17;22.60;99.90
47921;DHT22;33686;48.770;9.186;2023-07-29T18:04:43;22.60;99.90
47921;DHT22;33686;48.770;9.186;2023-07-29T18:07:09;22.60;99.90
47921;DHT22;33686;48.770;9.186;2023-07-29T18:09:34;22.70;99.90
47921;DHT22;33686;48.770;9.186;2023-07-29T18:12:00;22.60;99.90
47921;DHT22;33686;48.770;9.186;2023-07-29T18:14:26;22.60;99.90
47921;DHT22;33686;48.770;9.186;2023-07-29T18:16:53;22.60;99.90
47921;DHT22;33686;48.770;9.186;2023-07-29T18:19:18;22.50;99.90
47921;DHT22;33686;48.770;9.186;2023-07-29T18:21:46;22.50;99.90
47921;DHT22;33686;48.770;9.186;2023-07-29T18:24:12;22.40;99.90
47921;DHT22;33686;48.770;9.186;2023-07-29T18:26:37;22.40;99.90
47921;DHT22;33686;48.770;9.186;2023-07-29T18:29:03;22.40;99.90
47921;DHT22;33686;48.770;9.186;2023-07-29T18:31:28;22.30;99.90
47921;DHT22;33686;48.770;9.186;2023-07-29T18:33:54;22.20;99.90
47921;DHT22;33686;48.770;9.186;2023-07-29T18:36:20;22.20;99.90
47921;DHT22;33686;48.770;9.186;2023-07-29T18:38:45;22.30;99.90
47921;DHT22;33686;48.770;9.186;2023-07-29T18:41:11;22.30;99.90
47921;DHT22;33686;48.770;9.186;2023-07-29T18:43:36;22.20;99.90
47921;DHT22;33686;48.770;9.186;2023-07-29T18:46:02;22.20;99.90
47921;DHT22;33686;48.770;9.186;2023-07-29T18:48:27;22.10;99.90
47921;DHT22;33686;48.770;9.186;2023-07-29T18:50:53;22.10;99.90
47921;DHT22;33686;48.770;9.186;2023-07-29T18:53:19;22.00;99.90
47921;DHT22;33686;48.770;9.186;2023-07-29T18:55:44;21.90;99.90
47921;DHT22;33686;48.770;9.186;2023-07-29T18:58:10;21.80;99.90
47921;DHT22;33686;48.770;9.186;2023-07-29T19:00:35;21.70;99.90
47921;DHT22;33686;48.770;9.186;2023-07-29T19:03:03;21.70;99.90
47921;DHT22;33686;48.770;9.186;2023-07-29T19:05:28;21.60;99.90
47921;DHT22;33686;48.770;9.186;2023-07-29T19:07:54;21.60;99.90
47921;DHT22;33686;48.770;9.186;2023-07-29T19:10:19;21.60;99.90
47921;DHT22;33686;48.770;9.186;2023-07-29T19:12:46;21.50;99.90
47921;DHT22;33686;48.770;9.186;2023-07-29T19:15:12;21.60;99.90
47921;DHT22;33686;48.770;9.186;2023-07-29T19:17:37;21.60;99.90
47921;DHT22;33686;48.770;9.186;2023-07-29T19:20:03;21.50;99.90
47921;DHT22;33686;48.770;9.186;2023-07-29T19:22:31;21.50;99.90
47921;DHT22;33686;48.770;9.186;2023-07-29T19:24:56;21.40;99.90
47921;DHT22;33686;48.770;9.186;2023-07-29T19:27:22;21.40;99.90
47921;DHT22;33686;48.770;9.186;2023-07-29T19:29:47;21.40;99.90
47921;DHT22;33686;48.770;9.186;2023-07-29T19:32:13;21.30;99.90
47921;DHT22;33686;48.770;9.186;2023-07-29T19:34:38;21.30;99.90
47921;DHT22;33686;48.770;9.186;2023-07-29T19:37:04;21.30;99.90
47921;DHT22;33686;48.770;9.186;2023-07-29T19:39:30;21.30;99.90
47921;DHT22;33686;48.770;9.186;2023-07-29T19:41:55;21.20;99.90
47921;DHT22;33686;48.770;9.186;2023-07-29T19:44:21;21.20;99.90
47921;DHT22;33686;48.770;9.186;2023-07-29T19:46:47;21.10;99.90
47921;DHT22;33686;48.770;9.186;2023-07-29T19:49:12;21.10;99.90
47921;DHT22;33686;48.770;9.186;2023-07-29T19:51:38;21.10;99.90
47921;DHT22;33686;48.770;9.186;2023-07-29T19:54:04;21.10;99.90
47921;DHT22;33686;48.770;9.186;2023-07-29T19:56:29;21.10;99.90
47921;DHT22;33686;48.770;9.186;2023-07-29T19:58:55;21.00;99.90
47921;DHT22;33686;48.770;9.186;2023-07-29T20:01:20;21.00;99.90
47921;DHT22;33686;48.770;9.186;2023-07-29T20:03:46;21.00;99.90
47921;DHT22;33686;48.770;9.186;2023-07-29T20:06:11;21.00;99.90
47921;DHT22;33686;48.770;9.186;2023-07-29T20:08:37;21.00;99.90
47921;DHT22;33686;48.770;9.186;2023-07-29T20:11:02;21.00;99.90
47921;DHT22;33686;48.770;9.186;2023-07-29T20:13:29;21.00;99.90
47921;DHT22;33686;48.770;9.186;2023-07-29T20:15:54;20.90;99.90
47921;DHT22;33686;48.770;9.186;2023-07-29T20:18:20;21.00;99.90
47921;DHT22;33686;48.770;9.186;2023-07-29T20:20:49;21.00;99.90
47921;DHT22;33686;48.770;9.186;2023-07-29T20:23:14;20.90;99.90
47921;DHT22;33686;48.770;9.186;2023-07-29T20:25:40;20.80;99.90
47921;DHT22;33686;48.770;9.186;2023-07-29T20:28:06;20.80;99.90
47921;DHT22;33686;48.770;9.186;2023-07-29T20:30:31;20.80;99.90
47921;DHT22;33686;48.770;9.186;2023-07-29T20:32:58;20.80;99.90
47921;DHT22;33686;48.770;9.186;2023-07-29T20:35:24;20.80;99.90
47921;DHT22;33686;48.770;9.186;2023-07-29T20:37:50;20.80;99.90
47921;DHT22;33686;48.770;9.186;2023-07-29T20:40:15;20.80;99.90
47921;DHT22;33686;48.770;9.186;2023-07-29T20:42:41;20.70;99.90
47921;DHT22;33686;48.770;9.186;2023-07-29T20:45:06;20.70;99.90
47921;DHT22;33686;48.770;9.186;2023-07-29T20:47:32;20.70;99.90
47921;DHT22;33686;48.770;9.186;2023-07-29T20:49:59;20.70;99.90
47921;DHT22;33686;48.770;9.186;2023-07-29T20:52:24;20.80;99.90
47921;DHT22;33686;48.770;9.186;2023-07-29T20:54:50;20.70;99.90
47921;DHT22;33686;48.770;9.186;2023-07-29T20:57:15;20.80;99.90
47921;DHT22;33686;48.770;9.186;2023-07-29T20:59:41;20.70;99.90
47921;DHT22;33686;48.770;9.186;2023-07-29T21:02:07;20.70;99.90
47921;DHT22;33686;48.770;9.186;2023-07-29T21:04:32;20.70;99.90